메인 페이지
METAR-TAF:

METAR-TAF

공항 :

란치, 인도

위도: 23-18-51N, 경도: 85-19-18E, 고도: 646m

현재 날씨관측

예보는 59분 전, 20:00시(UTC)에 발표되었습니다.
무풍
온도 27°C
습도 70%
기압 1010 hPa
시정: 4000m
연무

METAR: VERC 252000Z 00000KT 4000 HZ NSC 27/21 Q1010 NOSIG

시각: 02:29 (20:59 UTC)

예보

예보는 59분 전, 20:00시(UTC)에 발표되었습니다.
예보 대상 시간: 25일 21시부터 26일 06시까지 (UTC)
남남서3kt
시정: 3500m
고도 2000ft 상공 구름 조금
연무
전환 중
26일 04시부터 26일 06시까지 (UTC)
북서5kt
시정: 4500m
고도 2000ft 상공 구름 조금
고도 2500ft 상공 구름 보통
연무

TAF: VERC 252000Z 2521/2606 20003KT 3500 HZ FEW020 BECMG 2604/2606 32005KT 4500 HZ FEW020 SCT025

4,000개 이상의 공항 관측 자료 및 예보 (METAR 및 TAF 보고).

지도상에서 검색 가능한 기상관측소가 노란 점과 빨간 점으로 표시되어 있습니다.

기상관측소 명을 보려면 표시 위로 마우스를 이동하세요.

날씨 관측과 예보를 보려면 클릭하세요.

지도 변경 : 확대하려면 엑스 표시가 있는 녹색 버튼, 축소하려면 빼기 표시가 있는 녹색 버튼, 다음 페이지의 지도를 보려면 녹색 화살표를 클릭하세요.


METAR-TAF: